Flight Track Log - Related Links

Times and Time Zones

All times are in EDT time to prevent confusion due to time zone crossing. See the OPT429 flight status page for this flight to view local times or setup timezone preferences in your user account.

Time Position Orientation Groundspeed Altitude Reporting Facility
EDT Latitude Longitude Course Direction KTS MPH feet Rate Location/Type
Sun 10:55:21 AM 30.3250 -89.4847 315° West 189 217 4,000  Level Houston Center
Sun 10:56:23 AM 30.3600 -89.5256 315° West 182 209 6,500 2,226 Climbing Houston Center
Sun 10:57:25 AM 30.4167 -89.5664 328° Northwest 238 274 8,600 2,129 Climbing Houston Center
Sun 10:58:27 AM 30.4817 -89.6158 327° Northwest 276 318 10,900 2,129 Climbing Houston Center
Sun 10:59:29 AM 30.5636 -89.6550 338° Northwest 313 360 13,000 2,323 Climbing Houston Center
Sun 11:00:31 AM 30.6650 -89.7058 337° Northwest 331 381 15,700 2,256 Climbing Houston Center
Sun 11:01:34 AM 30.7536 -89.7497 337° Northwest 343 395 17,700 1,968 Climbing Houston Center
Sun 11:02:36 AM 30.8439 -89.7953 337° Northwest 350 403 19,800 1,935 Climbing Houston Center
Sun 11:03:38 AM 30.9367 -89.8411 337° Northwest 357 411 21,700 1,790 Climbing Houston Center
Sun 11:04:40 AM 31.0308 -89.8897 336° Northwest 366 421 23,500 1,839 Climbing Houston Center
Sun 11:05:42 AM 31.1458 -89.9469 337° Northwest 371 427 25,500 1,500 Climbing Houston Center
Sun 11:06:44 AM 31.2461 -89.9975 337° Northwest 390 449 26,600 1,065 Climbing Houston Center
Sun 11:07:46 AM 31.3508 -90.0506 337° Northwest 405 466 27,700 1,104 Climbing Houston Center
Sun 11:08:49 AM 31.4561 -90.1039 337° Northwest 411 473 28,900 1,104 Climbing Houston Center
Sun 11:09:51 AM 31.5650 -90.1589 337° Northwest 423 487 30,000 1,190 Climbing Houston Center
Sun 11:10:45 AM 31.6819 -90.2183 337° Northwest 428 493 31,200 1,190 Climbing Memphis Center
Sun 11:11:47 AM 31.7947 -90.2764 336° Northwest 437 503 32,300 1,065 Climbing Memphis Center
Sun 11:12:49 AM 31.9075 -90.3339 337° Northwest 440 506 33,400 1,220 Climbing Memphis Center
Sun 11:13:50 AM 32.0208 -90.3928 336° Northwest 444 511 34,800 780 Climbing Memphis Center
Sun 11:14:52 AM 32.1342 -90.4514 336° Northwest 444 511 35,000 97 Climbing Memphis Center
Sun 11:15:54 AM 32.2503 -90.5114 336° Northwest 449 517 35,000  Level Memphis Center
Sun 11:16:55 AM 32.3667 -90.5722 336° Northwest 454 522 35,000 98 Level Memphis Center
Sun 11:17:57 AM 32.5067 -90.6442 337° Northwest 456 525 35,200 677 Climbing Memphis Center
Sun 11:18:59 AM 32.6219 -90.7044 336° Northwest 456 525 36,400 1,171 Climbing Memphis Center
Sun 11:20:00 AM 32.7375 -90.7653 336° Northwest 455 524 37,600 1,317 Climbing Memphis Center
Sun 11:21:02 AM 32.8500 -90.8247 336° Northwest 451 519 39,100 1,452 Climbing Memphis Center
Sun 11:22:04 AM 32.9578 -90.8803 337° Northwest 432 497 40,600 1,452 Climbing Memphis Center
Sun 11:23:06 AM 33.0619 -90.9356 336° Northwest 418 481 42,100 1,161 Climbing Memphis Center
Sun 11:24:08 AM 33.1822 -90.9978 337° Northwest 399 459 43,000 439 Climbing Memphis Center
Sun 11:25:09 AM 33.2850 -91.0533 336° Northwest 400 460 43,000  Level Memphis Center
Sun 11:26:11 AM 33.3914 -91.1108 336° Northwest 413 475 43,000  Level Memphis Center
Sun 11:27:13 AM 33.5003 -91.1672 337° Northwest 422 486 43,000  Level Memphis Center
Sun 11:28:14 AM 33.6094 -91.2264 336° Northwest 429 494 43,000  Level Memphis Center
Sun 11:29:16 AM 33.7189 -91.2850 336° Northwest 430 495 43,000  Level Memphis Center
Sun 11:30:18 AM 33.8386 -91.3494 336° Northwest 426 490 43,000  Level Memphis Center
Sun 11:31:20 AM 33.9439 -91.4050 336° Northwest 419 482 43,000  Level Memphis Center
Sun 11:32:21 AM 34.0469 -91.4619 335° Northwest 412 474 43,000  Level Memphis Center
Sun 11:33:23 AM 34.1522 -91.5186 336° Northwest 412 474 43,000  Level Memphis Center
Sun 11:34:25 AM 34.2589 -91.5767 336° Northwest 414 476 43,000  Level Memphis Center
Sun 11:35:27 AM 34.3869 -91.6456 336° Northwest 416 479 43,000  Level Memphis Center
Sun 11:36:28 AM 34.4953 -91.7044 336° Northwest 420 483 43,000  Level Memphis Center
Sun 11:37:30 AM 34.6031 -91.7653 335° Northwest 421 484 43,000  Level Memphis Center
Sun 11:38:32 AM 34.7106 -91.8244 336° Northwest 421 484 43,000  Level Memphis Center
Sun 11:39:34 AM 34.8181 -91.8825 336° Northwest 421 484 43,000  Level Memphis Center
Sun 11:40:35 AM 34.9258 -91.9414 336° Northwest 421 484 43,000  Level Memphis Center
Sun 11:41:37 AM 35.0339 -92.0006 336° Northwest 422 486 43,000  Level Memphis Center
Sun 11:42:39 AM 35.1622 -92.0719 336° Northwest 422 486 43,000  Level Memphis Center
Sun 11:43:40 AM 35.2678 -92.1319 335° Northwest 422 486 43,000  Level Memphis Center
Sun 11:44:42 AM 35.3733 -92.1914 335° Northwest 422 486 43,000  Level Memphis Center
Sun 11:45:44 AM 35.4775 -92.2489 336° Northwest 417 480 43,000  Level Memphis Center
Sun 11:46:46 AM 35.5800 -92.3069 335° Northwest 413 475 43,000  Level Memphis Center
Sun 11:47:47 AM 35.6822 -92.3639 336° Northwest 411 473 43,000  Level Memphis Center
Sun 11:48:49 AM 35.8044 -92.4325 336° Northwest 406 467 43,000  Level Memphis Center
Sun 11:49:51 AM 35.9061 -92.4911 335° Northwest 406 467 43,000  Level Memphis Center
Sun 11:50:52 AM 36.0097 -92.5497 335° Northwest 407 468 43,000  Level Memphis Center
Sun 11:51:54 AM 36.1131 -92.6086 335° Northwest 407 468 43,000  Level Memphis Center
Sun 11:52:56 AM 36.2169 -92.6672 336° Northwest 407 468 43,000  Level Memphis Center
Sun 11:53:58 AM 36.3211 -92.7283 335° Northwest 410 472 43,000  Level Memphis Center
Sun 11:54:59 AM 36.4261 -92.7897 335° Northwest 414 476 43,000  Level Memphis Center
Sun 11:56:01 AM 36.5525 -92.8617 335° Northwest 414 476 43,000  Level Memphis Center
Sun 11:57:03 AM 36.6583 -92.9236 335° Northwest 414 476 43,000  Level Memphis Center
Sun 11:57:45 AM 36.7228 -92.9644 333° Northwest 414 476 43,000  Level Kansas City Center
Sun 11:58:48 AM 36.8267 -93.0244 335° Northwest 414 476 43,000  Level Kansas City Center
Sun 11:59:48 AM 36.9322 -93.0869 335° Northwest 414 476 43,000  Level Kansas City Center
Sun 12:00:52 PM 37.0369 -93.1458 336° Northwest 414 476 43,000  Level Kansas City Center
Sun 12:01:53 PM 37.1639 -93.2211 335° Northwest 414 476 43,000  Level Kansas City Center
Sun 12:02:54 PM 37.2706 -93.2844 335° Northwest 416 479 43,000  Level Kansas City Center
Sun 12:03:58 PM 37.3728 -93.3550 331° Northwest 417 480 43,000  Level Kansas City Center
Sun 12:04:59 PM 37.4525 -93.4550 315° West 403 464 43,000 -836 Level Kansas City Center
Sun 12:06:00 PM 37.5353 -93.5572 316° Northwest 405 466 41,300 -2,032 Descending Kansas City Center
Sun 12:07:03 PM 37.6208 -93.6639 315° West 420 483 38,800 -2,362 Descending Kansas City Center
Sun 12:08:07 PM 37.7072 -93.7731 315° West 431 496 36,300 -2,661 Descending Kansas City Center
Sun 12:09:07 PM 37.8128 -93.9044 316° Northwest 437 503 33,300 -2,628 Descending Kansas City Center
Sun 12:10:08 PM 37.8931 -94.0053 315° West 415 478 31,000 -2,274 Descending Kansas City Center
Sun 12:11:11 PM 37.9753 -94.1103 315° West 415 478 28,600 -2,409 Descending Kansas City Center
Sun 12:12:15 PM 38.0667 -94.2250 315° West 430 495 25,900 -2,476 Descending Kansas City Center
Sun 12:13:17 PM 38.1525 -94.3358 315° West 441 507 23,400 -2,410 Descending Kansas City Center
Sun 12:14:17 PM 38.2342 -94.4425 314° West 429 494 21,000 -2,262 Descending Kansas City Center
Sun 12:15:19 PM 38.3178 -94.5333 320° Northwest 409 471 18,800 -2,146 Descending Kansas City Center
Sun 12:16:20 PM 38.4019 -94.6117 324° Northwest 379 436 16,600 -2,064 Descending Kansas City Center
Sun 12:17:24 PM 38.4831 -94.6925 322° Northwest 375 432 14,500 -2,173 Descending Kansas City Center
Sun 12:18:27 PM 38.5786 -94.7864 322° Northwest 364 419 12,000 -2,177 Descending Kansas City Center
Sun 12:19:28 PM 38.6511 -94.8581 322° Northwest 333 383 10,000 -2,016 Descending Kansas City Center
Sun 12:20:29 PM 38.7158 -94.9222 322° Northwest 295 339 7,900 -1,984 Descending Kansas City Center
Sun 12:21:32 PM 38.7747 -94.9811 322° Northwest 274 315 5,900 -1,984 Descending Kansas City Center
Sun 12:22:33 PM 38.8322 -95.0375 323° Northwest 264 304 3,800 -1,355 Descending Kansas City Center
Sun 12:23:36 PM 38.8886 -95.0942 322° Northwest 261 300 3,100 -667 Descending Kansas City Center

Login

Don't have an account? Register now (free) for customized features, flight alerts, and more!